SIA152 WSSS-EHAM
Flight info
| Callsign | SIA152 |
|---|---|
| Flight time | N/A |
| Altitude | 41000 |
| Route | AROSO3A AROSO Y513 KALIL Y501 RINBA Y503 VPL P628 RK G202 ZB L750 RANAH B449 MAMED B450 BIBIM A909 RODAR M11 ERLEV T923 SUBUT T916 MATAL DCT REBLO UR317 TBN UM11 CRM UL746 ODERO DCT TUVNU DCT FOGRE DCT TEKVI DCT ELMEK DCT VEXIL DCT KATCE DCT AMSAN T281 NORKU |
| Aircraft | A35K/H-SDE2E3GHIJ3J4J5LM1ORWXY/LB1D1 |
Departure
| Time | N/A |
|---|---|
| Airport | Singapore Changi Airport (WSSS) |
Arrival
| Time | 2026-04-29 11:14 |
|---|---|
| Airport | Amsterdam Airport Schiphol (EHAM) |
| Time | Latitude | Longitude | Altitude | Speed | Heading |
|---|---|---|---|---|---|
| 2026-04-29 07:37 | 41.12613 | 38.35729 | 35844 ft | 470 kts | 275° |
| 2026-04-29 07:37 | 41.12967 | 38.31412 | 35972 ft | 470 kts | 275° |
| 2026-04-29 07:38 | 41.13320 | 38.27101 | 36098 ft | 470 kts | 275° |
| 2026-04-29 07:38 | 41.13675 | 38.22789 | 36223 ft | 470 kts | 275° |
| 2026-04-29 07:38 | 41.14024 | 38.18535 | 36347 ft | 470 kts | 275° |
| 2026-04-29 07:38 | 41.14377 | 38.14204 | 36440 ft | 470 kts | 275° |
| 2026-04-29 07:39 | 41.14728 | 38.09883 | 36551 ft | 471 kts | 275° |
| 2026-04-29 07:39 | 41.15078 | 38.05551 | 36657 ft | 471 kts | 275° |
| 2026-04-29 07:39 | 41.15423 | 38.01268 | 36771 ft | 471 kts | 275° |
| 2026-04-29 07:39 | 41.15769 | 37.96945 | 36882 ft | 471 kts | 275° |
| 2026-04-29 07:40 | 41.16113 | 37.92631 | 36998 ft | 471 kts | 275° |
| 2026-04-29 07:40 | 41.16457 | 37.88305 | 37102 ft | 471 kts | 275° |
| 2026-04-29 07:40 | 41.16809 | 37.83993 | 37205 ft | 471 kts | 275° |
| 2026-04-29 07:40 | 41.17176 | 37.79657 | 37308 ft | 470 kts | 276° |
| 2026-04-29 07:41 | 41.17547 | 37.75348 | 37420 ft | 471 kts | 276° |
| 2026-04-29 07:41 | 41.17917 | 37.71029 | 37531 ft | 470 kts | 276° |
| 2026-04-29 07:41 | 41.18284 | 37.66722 | 37632 ft | 470 kts | 276° |
| 2026-04-29 07:41 | 41.18644 | 37.62456 | 37720 ft | 470 kts | 275° |
| 2026-04-29 07:42 | 41.19217 | 37.53819 | 37890 ft | 469 kts | 273° |
| 2026-04-29 07:42 | 41.19658 | 37.46575 | 37995 ft | 470 kts | 275° |
| 2026-04-29 07:43 | 41.20289 | 37.37932 | 38100 ft | 471 kts | 275° |
| 2026-04-29 07:43 | 41.20938 | 37.29340 | 38155 ft | 470 kts | 275° |
| 2026-04-29 07:44 | 41.21579 | 37.20706 | 38154 ft | 469 kts | 275° |
| 2026-04-29 07:44 | 41.22250 | 37.12048 | 38157 ft | 469 kts | 275° |
| 2026-04-29 07:45 | 41.22921 | 37.03473 | 38156 ft | 469 kts | 275° |
| 2026-04-29 07:45 | 41.23585 | 36.94844 | 38163 ft | 468 kts | 275° |
| 2026-04-29 07:46 | 41.24238 | 36.86228 | 38172 ft | 468 kts | 275° |
| 2026-04-29 07:46 | 41.24882 | 36.77626 | 38167 ft | 467 kts | 275° |
| 2026-04-29 07:47 | 41.25517 | 36.69071 | 38195 ft | 468 kts | 275° |
| 2026-04-29 07:47 | 41.26150 | 36.60452 | 38186 ft | 468 kts | 275° |
| 2026-04-29 07:48 | 41.27117 | 36.51910 | 38157 ft | 468 kts | 284° |
| 2026-04-29 07:48 | 41.29127 | 36.43735 | 38157 ft | 469 kts | 289° |
| 2026-04-29 07:49 | 41.31383 | 36.35582 | 38157 ft | 469 kts | 289° |
| 2026-04-29 07:49 | 41.33556 | 36.27405 | 38158 ft | 468 kts | 288° |
| 2026-04-29 07:50 | 41.35641 | 36.19233 | 38161 ft | 468 kts | 287° |
| 2026-04-29 07:50 | 41.37710 | 36.10997 | 38158 ft | 468 kts | 287° |
| 2026-04-29 07:51 | 41.39771 | 36.02769 | 38163 ft | 468 kts | 287° |
| 2026-04-29 07:51 | 41.41830 | 35.94538 | 38160 ft | 468 kts | 287° |
| 2026-04-29 07:52 | 41.43871 | 35.86358 | 38159 ft | 468 kts | 287° |
| 2026-04-29 07:52 | 41.45917 | 35.78127 | 38158 ft | 467 kts | 287° |
| 2026-04-29 07:53 | 41.47960 | 35.69878 | 38156 ft | 467 kts | 287° |
| 2026-04-29 07:53 | 41.49985 | 35.61674 | 38158 ft | 468 kts | 287° |
| 2026-04-29 07:54 | 41.52014 | 35.53425 | 38152 ft | 467 kts | 287° |
| 2026-04-29 07:54 | 41.54036 | 35.45176 | 38154 ft | 467 kts | 287° |
| 2026-04-29 07:55 | 41.56055 | 35.36911 | 38161 ft | 467 kts | 287° |
| 2026-04-29 07:55 | 41.58056 | 35.28688 | 38133 ft | 467 kts | 287° |
| 2026-04-29 07:56 | 41.60062 | 35.20412 | 38154 ft | 468 kts | 287° |
| 2026-04-29 07:56 | 41.62061 | 35.12140 | 38149 ft | 468 kts | 287° |
| 2026-04-29 07:57 | 41.64046 | 35.03896 | 38151 ft | 467 kts | 287° |
| 2026-04-29 07:57 | 41.66028 | 34.95636 | 38149 ft | 466 kts | 287° |
| 2026-04-29 07:58 | 41.68001 | 34.87380 | 38150 ft | 465 kts | 287° |
| 2026-04-29 07:58 | 41.69957 | 34.79169 | 38147 ft | 466 kts | 287° |
| 2026-04-29 07:59 | 41.71916 | 34.70911 | 38135 ft | 464 kts | 287° |
| 2026-04-29 07:59 | 41.73863 | 34.62683 | 38148 ft | 464 kts | 287° |
| 2026-04-29 08:00 | 41.75807 | 34.54447 | 38152 ft | 464 kts | 287° |
| 2026-04-29 08:00 | 41.77740 | 34.46208 | 38147 ft | 464 kts | 287° |
| 2026-04-29 08:01 | 41.79666 | 34.37962 | 38146 ft | 463 kts | 287° |
| 2026-04-29 08:01 | 41.81587 | 34.29715 | 38140 ft | 463 kts | 287° |
| 2026-04-29 08:02 | 41.83502 | 34.21462 | 38148 ft | 463 kts | 287° |
| 2026-04-29 08:02 | 41.85398 | 34.13265 | 38165 ft | 462 kts | 287° |
| 2026-04-29 08:03 | 41.87296 | 34.05032 | 38151 ft | 461 kts | 287° |
| 2026-04-29 08:03 | 41.89185 | 33.96801 | 38151 ft | 460 kts | 287° |
| 2026-04-29 08:04 | 41.91066 | 33.88582 | 38159 ft | 461 kts | 287° |
| 2026-04-29 08:04 | 41.92932 | 33.80396 | 38160 ft | 460 kts | 287° |
| 2026-04-29 08:05 | 41.94797 | 33.72183 | 38156 ft | 459 kts | 287° |
| 2026-04-29 08:05 | 41.96556 | 33.63937 | 38163 ft | 459 kts | 284° |
| 2026-04-29 08:06 | 41.98113 | 33.55620 | 38162 ft | 458 kts | 284° |
| 2026-04-29 08:06 | 41.99652 | 33.47341 | 38166 ft | 457 kts | 284° |
| 2026-04-29 08:07 | 42.01217 | 33.39070 | 38161 ft | 455 kts | 284° |
| 2026-04-29 08:07 | 42.02787 | 33.30833 | 38162 ft | 455 kts | 284° |
| 2026-04-29 08:08 | 42.04343 | 33.22642 | 38162 ft | 455 kts | 284° |
| 2026-04-29 08:08 | 42.05900 | 33.14399 | 38165 ft | 454 kts | 284° |
| 2026-04-29 08:09 | 42.07449 | 33.06178 | 38159 ft | 452 kts | 285° |
| 2026-04-29 08:09 | 42.09101 | 32.97996 | 38159 ft | 452 kts | 286° |
| 2026-04-29 08:10 | 42.10799 | 32.89839 | 38159 ft | 452 kts | 286° |
| 2026-04-29 08:10 | 42.12470 | 32.81722 | 38161 ft | 452 kts | 285° |
| 2026-04-29 08:11 | 42.14128 | 32.73559 | 38162 ft | 451 kts | 285° |
| 2026-04-29 08:11 | 42.15774 | 32.65402 | 38162 ft | 451 kts | 285° |
| 2026-04-29 08:12 | 42.17416 | 32.57246 | 38162 ft | 451 kts | 285° |
| 2026-04-29 08:12 | 42.19050 | 32.49068 | 38162 ft | 451 kts | 285° |
| 2026-04-29 08:13 | 42.20666 | 32.40932 | 38166 ft | 451 kts | 285° |
| 2026-04-29 08:13 | 42.22287 | 32.32745 | 38166 ft | 451 kts | 285° |
| 2026-04-29 08:14 | 42.23895 | 32.24600 | 38167 ft | 451 kts | 285° |
| 2026-04-29 08:14 | 42.25507 | 32.16419 | 38172 ft | 451 kts | 285° |
| 2026-04-29 08:15 | 42.27108 | 32.08225 | 38170 ft | 451 kts | 285° |
| 2026-04-29 08:15 | 42.28696 | 32.00083 | 38173 ft | 450 kts | 285° |
| 2026-04-29 08:16 | 42.30289 | 31.91892 | 38173 ft | 450 kts | 284° |
| 2026-04-29 08:16 | 42.31879 | 31.83687 | 38175 ft | 450 kts | 285° |
| 2026-04-29 08:17 | 42.33458 | 31.75508 | 38181 ft | 449 kts | 284° |
| 2026-04-29 08:17 | 42.35032 | 31.67324 | 38171 ft | 449 kts | 285° |
| 2026-04-29 08:18 | 42.36587 | 31.59199 | 38181 ft | 449 kts | 285° |
| 2026-04-29 08:18 | 42.38151 | 31.51001 | 38182 ft | 449 kts | 285° |
| 2026-04-29 08:19 | 42.39704 | 31.42816 | 38182 ft | 449 kts | 284° |
| 2026-04-29 08:19 | 42.41251 | 31.34636 | 38184 ft | 449 kts | 284° |
| 2026-04-29 08:20 | 42.42791 | 31.26453 | 38184 ft | 449 kts | 284° |
| 2026-04-29 08:20 | 42.44315 | 31.18326 | 38185 ft | 448 kts | 284° |
| 2026-04-29 08:21 | 42.45841 | 31.10151 | 38186 ft | 447 kts | 284° |
| 2026-04-29 08:21 | 42.47363 | 31.01978 | 38186 ft | 447 kts | 284° |
| 2026-04-29 08:22 | 42.48869 | 30.93808 | 38192 ft | 447 kts | 284° |
| 2026-04-29 08:22 | 42.50372 | 30.85624 | 38200 ft | 447 kts | 284° |
| 2026-04-29 08:23 | 42.51859 | 30.77499 | 38194 ft | 446 kts | 284° |
| 2026-04-29 08:23 | 42.53348 | 30.69332 | 38195 ft | 446 kts | 284° |
| 2026-04-29 08:24 | 42.54837 | 30.61131 | 38192 ft | 446 kts | 284° |
| 2026-04-29 08:24 | 42.56308 | 30.52996 | 38198 ft | 446 kts | 284° |
| 2026-04-29 08:25 | 42.57777 | 30.44830 | 38194 ft | 446 kts | 284° |
| 2026-04-29 08:25 | 42.59243 | 30.36648 | 38195 ft | 445 kts | 284° |
| 2026-04-29 08:26 | 42.60707 | 30.28469 | 38193 ft | 445 kts | 284° |
| 2026-04-29 08:26 | 42.61816 | 30.24620 | 38202 ft | 445 kts | 298° |
| 2026-04-29 08:26 | 42.63482 | 30.21066 | 38197 ft | 446 kts | 304° |
| 2026-04-29 08:27 | 42.67400 | 30.14490 | 38218 ft | 448 kts | 308° |
| 2026-04-29 08:27 | 42.71373 | 30.07967 | 38367 ft | 448 kts | 307° |
| 2026-04-29 08:28 | 42.75230 | 30.01284 | 38499 ft | 449 kts | 306° |
| 2026-04-29 08:28 | 42.79018 | 29.94523 | 38647 ft | 449 kts | 305° |
| 2026-04-29 08:29 | 42.82788 | 29.87743 | 38781 ft | 449 kts | 305° |
| 2026-04-29 08:29 | 42.86557 | 29.80952 | 38881 ft | 450 kts | 305° |
| 2026-04-29 08:30 | 42.92196 | 29.70787 | 39033 ft | 450 kts | 305° |
| 2026-04-29 08:31 | 42.95968 | 29.63975 | 39154 ft | 450 kts | 305° |
| 2026-04-29 08:31 | 42.99104 | 29.58296 | 39192 ft | 450 kts | 305° |
| 2026-04-29 08:32 | 43.02878 | 29.51448 | 39268 ft | 451 kts | 305° |
| 2026-04-29 08:32 | 43.06646 | 29.44596 | 39341 ft | 451 kts | 305° |
| 2026-04-29 08:33 | 43.10415 | 29.37725 | 39423 ft | 451 kts | 305° |
| 2026-04-29 08:33 | 43.14186 | 29.30835 | 39471 ft | 452 kts | 305° |
| 2026-04-29 08:34 | 43.17934 | 29.23971 | 39534 ft | 452 kts | 305° |
| 2026-04-29 08:34 | 43.21699 | 29.17061 | 39617 ft | 452 kts | 304° |
| 2026-04-29 08:35 | 43.25464 | 29.10133 | 39686 ft | 452 kts | 304° |
| 2026-04-29 08:35 | 43.29197 | 29.03250 | 39755 ft | 452 kts | 304° |
| 2026-04-29 08:36 | 43.32949 | 28.96314 | 39792 ft | 453 kts | 304° |
| 2026-04-29 08:36 | 43.36703 | 28.89357 | 39841 ft | 453 kts | 304° |
| 2026-04-29 08:37 | 43.40458 | 28.82384 | 39836 ft | 455 kts | 304° |
| 2026-04-29 08:37 | 43.44230 | 28.75362 | 39869 ft | 455 kts | 304° |
| 2026-04-29 08:38 | 43.47990 | 28.68344 | 39919 ft | 455 kts | 304° |
| 2026-04-29 08:38 | 43.51747 | 28.61316 | 39963 ft | 455 kts | 304° |
| 2026-04-29 08:39 | 43.55500 | 28.54278 | 39997 ft | 455 kts | 304° |
| 2026-04-29 08:39 | 43.59227 | 28.47273 | 40021 ft | 456 kts | 304° |
| 2026-04-29 08:40 | 43.62973 | 28.40215 | 40074 ft | 455 kts | 304° |
| 2026-04-29 08:40 | 43.66717 | 28.33144 | 40110 ft | 456 kts | 304° |
| 2026-04-29 08:41 | 43.70468 | 28.26044 | 40145 ft | 456 kts | 304° |
| 2026-04-29 08:41 | 43.74185 | 28.18989 | 40166 ft | 456 kts | 304° |
| 2026-04-29 08:42 | 43.77917 | 28.11890 | 40161 ft | 455 kts | 304° |
| 2026-04-29 08:42 | 43.81638 | 28.04794 | 40172 ft | 455 kts | 304° |
| 2026-04-29 08:43 | 43.85337 | 27.97723 | 40145 ft | 456 kts | 304° |
| 2026-04-29 08:43 | 43.89069 | 27.90570 | 40157 ft | 456 kts | 304° |
| 2026-04-29 08:44 | 43.92782 | 27.83438 | 40149 ft | 456 kts | 304° |
| 2026-04-29 08:44 | 43.96493 | 27.76292 | 40146 ft | 456 kts | 304° |
| 2026-04-29 08:45 | 44.00200 | 27.69136 | 40151 ft | 456 kts | 304° |
| 2026-04-29 08:45 | 44.03880 | 27.62013 | 40144 ft | 456 kts | 304° |
| 2026-04-29 08:46 | 44.07575 | 27.54846 | 40138 ft | 455 kts | 304° |
| 2026-04-29 08:46 | 44.11259 | 27.47681 | 40142 ft | 455 kts | 304° |
| 2026-04-29 08:47 | 44.14946 | 27.40493 | 40140 ft | 455 kts | 303° |
| 2026-04-29 08:47 | 44.18623 | 27.33307 | 40147 ft | 455 kts | 304° |
| 2026-04-29 08:48 | 44.22276 | 27.26149 | 40143 ft | 455 kts | 303° |
| 2026-04-29 08:48 | 44.25950 | 27.18934 | 40140 ft | 456 kts | 303° |
| 2026-04-29 08:49 | 44.29626 | 27.11696 | 40139 ft | 457 kts | 303° |
| 2026-04-29 08:49 | 44.33299 | 27.04445 | 40146 ft | 457 kts | 303° |
| 2026-04-29 08:50 | 44.36949 | 26.97224 | 40146 ft | 457 kts | 303° |
| 2026-04-29 08:50 | 44.40619 | 26.89944 | 40146 ft | 457 kts | 303° |
| 2026-04-29 08:51 | 44.44284 | 26.82655 | 40146 ft | 457 kts | 303° |
| 2026-04-29 08:51 | 44.47937 | 26.75372 | 40151 ft | 457 kts | 303° |
| 2026-04-29 08:52 | 44.51588 | 26.68075 | 40151 ft | 457 kts | 303° |
| 2026-04-29 08:52 | 44.55210 | 26.60816 | 40151 ft | 457 kts | 303° |
| 2026-04-29 08:53 | 44.58852 | 26.53501 | 40151 ft | 457 kts | 303° |
| 2026-04-29 08:53 | 44.62496 | 26.46161 | 40151 ft | 457 kts | 303° |
| 2026-04-29 08:54 | 44.66124 | 26.38834 | 40169 ft | 457 kts | 303° |
| 2026-04-29 08:54 | 44.69757 | 26.31480 | 40158 ft | 458 kts | 303° |
| 2026-04-29 08:55 | 44.73364 | 26.24161 | 40158 ft | 458 kts | 303° |
| 2026-04-29 08:55 | 44.76988 | 26.16788 | 40159 ft | 457 kts | 303° |
| 2026-04-29 08:56 | 44.80606 | 26.09409 | 40158 ft | 457 kts | 303° |
| 2026-04-29 08:56 | 44.84212 | 26.02034 | 40159 ft | 457 kts | 303° |
| 2026-04-29 08:57 | 44.87812 | 25.94652 | 40161 ft | 456 kts | 303° |
| 2026-04-29 08:57 | 44.91399 | 25.87280 | 40163 ft | 455 kts | 303° |
| 2026-04-29 08:58 | 44.94957 | 25.79946 | 40163 ft | 455 kts | 303° |
| 2026-04-29 08:58 | 44.98527 | 25.72570 | 40163 ft | 455 kts | 303° |
| 2026-04-29 08:59 | 45.02098 | 25.65173 | 40162 ft | 454 kts | 303° |
| 2026-04-29 08:59 | 45.05648 | 25.57800 | 40160 ft | 453 kts | 303° |
| 2026-04-29 09:00 | 45.09187 | 25.50432 | 40160 ft | 453 kts | 303° |
| 2026-04-29 09:00 | 45.12726 | 25.43043 | 40159 ft | 453 kts | 303° |
| 2026-04-29 09:01 | 45.16269 | 25.35627 | 40159 ft | 453 kts | 303° |
| 2026-04-29 09:01 | 45.19771 | 25.28277 | 40155 ft | 453 kts | 303° |
| 2026-04-29 09:02 | 45.23315 | 25.20821 | 40151 ft | 453 kts | 303° |
| 2026-04-29 09:02 | 45.26812 | 25.13445 | 40151 ft | 453 kts | 303° |
| 2026-04-29 09:03 | 45.30329 | 25.06007 | 40149 ft | 453 kts | 303° |
| 2026-04-29 09:03 | 45.33840 | 24.98562 | 40149 ft | 453 kts | 302° |
| 2026-04-29 09:04 | 45.37329 | 24.91144 | 40147 ft | 453 kts | 302° |
| 2026-04-29 09:04 | 45.40828 | 24.83685 | 40146 ft | 453 kts | 302° |
| 2026-04-29 09:05 | 45.44325 | 24.76211 | 40144 ft | 453 kts | 302° |
| 2026-04-29 09:05 | 45.47821 | 24.68720 | 40144 ft | 454 kts | 302° |
| 2026-04-29 09:06 | 45.51316 | 24.61209 | 40146 ft | 455 kts | 302° |
| 2026-04-29 09:06 | 45.54827 | 24.53647 | 40140 ft | 457 kts | 302° |
| 2026-04-29 09:07 | 45.58305 | 24.46134 | 40137 ft | 457 kts | 303° |
| 2026-04-29 09:07 | 45.61812 | 24.38540 | 40132 ft | 457 kts | 302° |
| 2026-04-29 09:08 | 45.65310 | 24.30946 | 40136 ft | 457 kts | 302° |
| 2026-04-29 09:08 | 45.68780 | 24.23391 | 40134 ft | 457 kts | 302° |
| 2026-04-29 09:09 | 45.72268 | 24.15775 | 40127 ft | 456 kts | 302° |
| 2026-04-29 09:09 | 45.75739 | 24.08178 | 40130 ft | 456 kts | 302° |
| 2026-04-29 09:10 | 45.79205 | 24.00569 | 40129 ft | 456 kts | 302° |
| 2026-04-29 09:10 | 45.82648 | 23.92992 | 40130 ft | 456 kts | 302° |
| 2026-04-29 09:11 | 45.86107 | 23.85358 | 40132 ft | 456 kts | 302° |
| 2026-04-29 09:11 | 45.89568 | 23.77698 | 40132 ft | 456 kts | 302° |
| 2026-04-29 09:12 | 45.92995 | 23.70092 | 40141 ft | 456 kts | 302° |
| 2026-04-29 09:12 | 45.96433 | 23.62443 | 40132 ft | 455 kts | 302° |
| 2026-04-29 09:13 | 45.99859 | 23.54799 | 40138 ft | 454 kts | 302° |
| 2026-04-29 09:13 | 46.03281 | 23.47145 | 40144 ft | 454 kts | 302° |
| 2026-04-29 09:14 | 46.06700 | 23.39477 | 40129 ft | 454 kts | 302° |
| 2026-04-29 09:14 | 46.10089 | 23.31854 | 40132 ft | 454 kts | 302° |
| 2026-04-29 09:15 | 46.13488 | 23.24186 | 40129 ft | 453 kts | 302° |
| 2026-04-29 09:15 | 46.16881 | 23.16513 | 40130 ft | 453 kts | 302° |
| 2026-04-29 09:16 | 46.20272 | 23.08822 | 40130 ft | 453 kts | 302° |
| 2026-04-29 09:16 | 46.23643 | 23.01154 | 40127 ft | 454 kts | 302° |
| 2026-04-29 09:17 | 46.27021 | 22.93454 | 40124 ft | 454 kts | 302° |
| 2026-04-29 09:17 | 46.29838 | 22.87012 | 40128 ft | 454 kts | 302° |
| 2026-04-29 09:18 | 46.33216 | 22.79271 | 40133 ft | 454 kts | 302° |
| 2026-04-29 09:18 | 46.36573 | 22.71553 | 40133 ft | 453 kts | 302° |
| 2026-04-29 09:19 | 46.39924 | 22.63830 | 40127 ft | 452 kts | 302° |
| 2026-04-29 09:19 | 46.43248 | 22.56147 | 40145 ft | 451 kts | 302° |
| 2026-04-29 09:20 | 46.46578 | 22.48428 | 40145 ft | 451 kts | 302° |
| 2026-04-29 09:20 | 46.49900 | 22.40707 | 40158 ft | 451 kts | 302° |
| 2026-04-29 09:21 | 46.53218 | 22.32973 | 40153 ft | 451 kts | 302° |
| 2026-04-29 09:21 | 46.56535 | 22.25223 | 40156 ft | 452 kts | 301° |
| 2026-04-29 09:22 | 46.59848 | 22.17459 | 40167 ft | 452 kts | 301° |
| 2026-04-29 09:22 | 46.63140 | 22.09721 | 40167 ft | 452 kts | 301° |
| 2026-04-29 09:23 | 46.66453 | 22.01911 | 40175 ft | 452 kts | 301° |
| 2026-04-29 09:23 | 46.69755 | 21.94107 | 40179 ft | 452 kts | 301° |
| 2026-04-29 09:24 | 46.73050 | 21.86297 | 40188 ft | 451 kts | 301° |
| 2026-04-29 09:24 | 46.76313 | 21.78541 | 40192 ft | 451 kts | 301° |
| 2026-04-29 09:25 | 46.79590 | 21.70729 | 40193 ft | 451 kts | 301° |
| 2026-04-29 09:25 | 46.82905 | 21.62924 | 40194 ft | 451 kts | 303° |
| 2026-04-29 09:26 | 46.86390 | 21.55287 | 40187 ft | 451 kts | 303° |
| 2026-04-29 09:26 | 46.89875 | 21.47718 | 40192 ft | 451 kts | 303° |
| 2026-04-29 09:27 | 46.93350 | 21.40069 | 40191 ft | 451 kts | 303° |
| 2026-04-29 09:27 | 46.96791 | 21.32421 | 40192 ft | 451 kts | 303° |
| 2026-04-29 09:28 | 47.00237 | 21.24729 | 40196 ft | 451 kts | 303° |
| 2026-04-29 09:28 | 47.03681 | 21.17023 | 40198 ft | 451 kts | 303° |
| 2026-04-29 09:29 | 47.07122 | 21.09305 | 40200 ft | 451 kts | 302° |
| 2026-04-29 09:29 | 47.12240 | 20.97787 | 40203 ft | 451 kts | 302° |
| 2026-04-29 09:30 | 47.15675 | 20.90028 | 40210 ft | 453 kts | 302° |
| 2026-04-29 09:30 | 47.19120 | 20.82226 | 40208 ft | 455 kts | 302° |
| 2026-04-29 09:31 | 47.22548 | 20.74440 | 40211 ft | 455 kts | 302° |
| 2026-04-29 09:31 | 47.25994 | 20.66592 | 40211 ft | 455 kts | 302° |
| 2026-04-29 09:32 | 47.29434 | 20.58733 | 40221 ft | 455 kts | 302° |
| 2026-04-29 09:32 | 47.32861 | 20.50883 | 40223 ft | 456 kts | 302° |
| 2026-04-29 09:33 | 47.36286 | 20.43015 | 40225 ft | 456 kts | 302° |
| 2026-04-29 09:33 | 47.39686 | 20.35180 | 40212 ft | 456 kts | 302° |
| 2026-04-29 09:34 | 47.43106 | 20.27279 | 40223 ft | 456 kts | 302° |
| 2026-04-29 09:34 | 47.46501 | 20.19412 | 40220 ft | 456 kts | 302° |
| 2026-04-29 09:35 | 47.49908 | 20.11495 | 40219 ft | 456 kts | 302° |
| 2026-04-29 09:35 | 47.53409 | 20.03658 | 40234 ft | 456 kts | 304° |
| 2026-04-29 09:36 | 47.56981 | 19.95864 | 40219 ft | 458 kts | 304° |
| 2026-04-29 09:36 | 47.60523 | 19.88087 | 40216 ft | 458 kts | 304° |
| 2026-04-29 09:37 | 47.64070 | 19.80225 | 40216 ft | 458 kts | 303° |
| 2026-04-29 09:37 | 47.67612 | 19.72336 | 40216 ft | 458 kts | 303° |
| 2026-04-29 09:38 | 47.71141 | 19.64448 | 40212 ft | 459 kts | 303° |
| 2026-04-29 09:38 | 47.74669 | 19.56543 | 40214 ft | 459 kts | 303° |
| 2026-04-29 09:39 | 47.78194 | 19.48625 | 40214 ft | 459 kts | 303° |
| 2026-04-29 09:39 | 47.81691 | 19.40746 | 40217 ft | 459 kts | 303° |
| 2026-04-29 09:40 | 47.85204 | 19.32806 | 40211 ft | 459 kts | 303° |
| 2026-04-29 09:40 | 47.88718 | 19.24844 | 40222 ft | 460 kts | 303° |
| 2026-04-29 09:41 | 47.92226 | 19.16868 | 40220 ft | 460 kts | 303° |
| 2026-04-29 09:41 | 47.95730 | 19.08883 | 40224 ft | 460 kts | 303° |
| 2026-04-29 09:42 | 47.99232 | 19.00877 | 40225 ft | 460 kts | 303° |
| 2026-04-29 09:42 | 48.02730 | 18.92855 | 40227 ft | 460 kts | 303° |
| 2026-04-29 09:43 | 48.06206 | 18.84861 | 40227 ft | 461 kts | 303° |
| 2026-04-29 09:43 | 48.09699 | 18.76804 | 40227 ft | 461 kts | 303° |
| 2026-04-29 09:44 | 48.13182 | 18.68747 | 40232 ft | 461 kts | 303° |
| 2026-04-29 09:44 | 48.16657 | 18.60684 | 40232 ft | 461 kts | 303° |
| 2026-04-29 09:45 | 48.20128 | 18.52601 | 40232 ft | 461 kts | 303° |
| 2026-04-29 09:45 | 48.23489 | 18.44474 | 40238 ft | 461 kts | 302° |
| 2026-04-29 09:46 | 48.26826 | 18.36245 | 40251 ft | 461 kts | 302° |
| 2026-04-29 09:46 | 48.30170 | 18.28014 | 40235 ft | 461 kts | 302° |
| 2026-04-29 09:47 | 48.33526 | 18.19768 | 40241 ft | 462 kts | 302° |
| 2026-04-29 09:47 | 48.36874 | 18.11531 | 40245 ft | 462 kts | 302° |
| 2026-04-29 09:48 | 48.40199 | 18.03323 | 40244 ft | 462 kts | 302° |
| 2026-04-29 09:48 | 48.43539 | 17.95052 | 40236 ft | 462 kts | 302° |
| 2026-04-29 09:49 | 48.46878 | 17.86756 | 40257 ft | 462 kts | 302° |
| 2026-04-29 09:49 | 48.50212 | 17.78447 | 40244 ft | 463 kts | 302° |
| 2026-04-29 09:50 | 48.53520 | 17.70177 | 40251 ft | 463 kts | 302° |
| 2026-04-29 09:50 | 48.56840 | 17.61850 | 40258 ft | 463 kts | 302° |
| 2026-04-29 09:51 | 48.60158 | 17.53503 | 40254 ft | 463 kts | 302° |
| 2026-04-29 09:51 | 48.63475 | 17.45134 | 40253 ft | 464 kts | 302° |
| 2026-04-29 09:52 | 48.66764 | 17.36805 | 40256 ft | 464 kts | 302° |
| 2026-04-29 09:52 | 48.70059 | 17.28439 | 40263 ft | 463 kts | 302° |
| 2026-04-29 09:53 | 48.73356 | 17.20041 | 40256 ft | 463 kts | 301° |
| 2026-04-29 09:53 | 48.76648 | 17.11629 | 40264 ft | 464 kts | 301° |
| 2026-04-29 09:54 | 48.79934 | 17.03204 | 40262 ft | 463 kts | 301° |
| 2026-04-29 09:54 | 48.83209 | 16.94781 | 40264 ft | 463 kts | 301° |
| 2026-04-29 09:55 | 48.86461 | 16.86391 | 40279 ft | 463 kts | 301° |
| 2026-04-29 09:55 | 48.89728 | 16.77935 | 40279 ft | 465 kts | 301° |
| 2026-04-29 09:56 | 48.92999 | 16.69443 | 40285 ft | 465 kts | 301° |
| 2026-04-29 09:56 | 48.96261 | 16.60945 | 40287 ft | 465 kts | 301° |
| 2026-04-29 09:57 | 48.99520 | 16.52429 | 40285 ft | 465 kts | 301° |
| 2026-04-29 09:57 | 49.02753 | 16.43952 | 40286 ft | 465 kts | 301° |
| 2026-04-29 09:58 | 49.06001 | 16.35409 | 40290 ft | 466 kts | 301° |
| 2026-04-29 09:58 | 49.09252 | 16.26832 | 40290 ft | 466 kts | 301° |
| 2026-04-29 09:59 | 49.12491 | 16.18258 | 40291 ft | 466 kts | 301° |
| 2026-04-29 09:59 | 49.15724 | 16.09671 | 40278 ft | 466 kts | 301° |
| 2026-04-29 10:00 | 49.18936 | 16.01110 | 40292 ft | 467 kts | 301° |
| 2026-04-29 10:00 | 49.22170 | 15.92464 | 40286 ft | 467 kts | 301° |
| 2026-04-29 10:01 | 49.25394 | 15.83815 | 40284 ft | 468 kts | 301° |
| 2026-04-29 10:01 | 49.28615 | 15.75146 | 40287 ft | 468 kts | 301° |
| 2026-04-29 10:02 | 49.31829 | 15.66469 | 40280 ft | 469 kts | 301° |
| 2026-04-29 10:02 | 49.34498 | 15.59240 | 40300 ft | 469 kts | 301° |
| 2026-04-29 10:03 | 49.38232 | 15.49091 | 40306 ft | 469 kts | 301° |
| 2026-04-29 10:03 | 49.41434 | 15.40357 | 40300 ft | 469 kts | 301° |
| 2026-04-29 10:04 | 49.44097 | 15.33072 | 40290 ft | 470 kts | 300° |
| 2026-04-29 10:04 | 49.47302 | 15.24278 | 40293 ft | 471 kts | 300° |
| 2026-04-29 10:05 | 49.50496 | 15.15483 | 40310 ft | 471 kts | 300° |
| 2026-04-29 10:05 | 49.53675 | 15.06698 | 40311 ft | 471 kts | 300° |
| 2026-04-29 10:06 | 49.56861 | 14.97864 | 40317 ft | 471 kts | 300° |
| 2026-04-29 10:06 | 49.60050 | 14.88994 | 40316 ft | 472 kts | 300° |
| 2026-04-29 10:07 | 49.63210 | 14.80172 | 40319 ft | 473 kts | 300° |
| 2026-04-29 10:07 | 49.66385 | 14.71278 | 40321 ft | 473 kts | 300° |
| 2026-04-29 10:08 | 49.69556 | 14.62365 | 40321 ft | 473 kts | 300° |
| 2026-04-29 10:08 | 49.72719 | 14.53445 | 40319 ft | 473 kts | 300° |
| 2026-04-29 10:09 | 49.75877 | 14.44506 | 40325 ft | 474 kts | 300° |
| 2026-04-29 10:09 | 49.79038 | 14.35527 | 40326 ft | 475 kts | 300° |
| 2026-04-29 10:10 | 49.82194 | 14.26533 | 40326 ft | 475 kts | 300° |
| 2026-04-29 10:10 | 49.85322 | 14.17588 | 40310 ft | 475 kts | 300° |
| 2026-04-29 10:11 | 49.88470 | 14.08551 | 40324 ft | 476 kts | 300° |
| 2026-04-29 10:11 | 49.91606 | 13.99543 | 40325 ft | 476 kts | 300° |
| 2026-04-29 10:12 | 49.94826 | 13.90542 | 40323 ft | 476 kts | 301° |
| 2026-04-29 10:12 | 49.98055 | 13.81571 | 40325 ft | 476 kts | 300° |
| 2026-04-29 10:13 | 50.01272 | 13.72564 | 40318 ft | 477 kts | 300° |
| 2026-04-29 10:13 | 50.04480 | 13.63523 | 40323 ft | 478 kts | 300° |
| 2026-04-29 10:14 | 50.07665 | 13.54504 | 40320 ft | 478 kts | 300° |
| 2026-04-29 10:14 | 50.10860 | 13.45425 | 40322 ft | 478 kts | 300° |
| 2026-04-29 10:15 | 50.14057 | 13.36312 | 40323 ft | 479 kts | 300° |
| 2026-04-29 10:15 | 50.17252 | 13.27173 | 40319 ft | 479 kts | 300° |
| 2026-04-29 10:16 | 50.20434 | 13.18036 | 40319 ft | 479 kts | 300° |
| 2026-04-29 10:16 | 50.23595 | 13.08928 | 40320 ft | 479 kts | 300° |
| 2026-04-29 10:17 | 50.26768 | 12.99754 | 40318 ft | 479 kts | 300° |
| 2026-04-29 10:17 | 50.29928 | 12.90580 | 40315 ft | 479 kts | 300° |
| 2026-04-29 10:18 | 50.33067 | 12.81440 | 40321 ft | 480 kts | 300° |
| 2026-04-29 10:18 | 50.36230 | 12.72192 | 40318 ft | 480 kts | 300° |
| 2026-04-29 10:19 | 50.39377 | 12.62959 | 40320 ft | 480 kts | 300° |
| 2026-04-29 10:19 | 50.42740 | 12.53928 | 40312 ft | 479 kts | 303° |
| 2026-04-29 10:20 | 50.46309 | 12.45084 | 40323 ft | 480 kts | 304° |
| 2026-04-29 10:20 | 50.49835 | 12.36237 | 40334 ft | 480 kts | 303° |
| 2026-04-29 10:21 | 50.53329 | 12.27290 | 40341 ft | 480 kts | 303° |
| 2026-04-29 10:21 | 50.56802 | 12.18308 | 40340 ft | 480 kts | 303° |
| 2026-04-29 10:22 | 50.60269 | 12.09307 | 40347 ft | 481 kts | 303° |
| 2026-04-29 10:22 | 50.63742 | 12.00267 | 40352 ft | 481 kts | 302° |
| 2026-04-29 10:23 | 50.67204 | 11.91227 | 40351 ft | 482 kts | 302° |
| 2026-04-29 10:23 | 50.70658 | 11.82177 | 40351 ft | 481 kts | 302° |
| 2026-04-29 10:24 | 50.74088 | 11.73156 | 40341 ft | 482 kts | 302° |
| 2026-04-29 10:24 | 50.77542 | 11.64044 | 40356 ft | 484 kts | 302° |
| 2026-04-29 10:25 | 50.80998 | 11.54890 | 40355 ft | 485 kts | 302° |
| 2026-04-29 10:25 | 50.84447 | 11.45725 | 40355 ft | 485 kts | 302° |
| 2026-04-29 10:26 | 50.87873 | 11.36588 | 40354 ft | 485 kts | 302° |
| 2026-04-29 10:26 | 50.91308 | 11.27394 | 40358 ft | 485 kts | 302° |
| 2026-04-29 10:27 | 50.96461 | 11.13541 | 40371 ft | 485 kts | 302° |
| 2026-04-29 10:28 | 50.99883 | 11.04297 | 40372 ft | 485 kts | 302° |
| 2026-04-29 10:28 | 51.03266 | 10.95128 | 40298 ft | 480 kts | 302° |
| 2026-04-29 10:28 | 51.04942 | 10.90568 | 39998 ft | 474 kts | 302° |
| 2026-04-29 10:29 | 51.06598 | 10.86057 | 39690 ft | 471 kts | 302° |
| 2026-04-29 10:29 | 51.08242 | 10.81569 | 39416 ft | 470 kts | 302° |
| 2026-04-29 10:29 | 51.09896 | 10.77055 | 39187 ft | 472 kts | 302° |
| 2026-04-29 10:29 | 51.11545 | 10.72543 | 38945 ft | 472 kts | 302° |
| 2026-04-29 10:30 | 51.13200 | 10.68006 | 38661 ft | 473 kts | 302° |
| 2026-04-29 10:30 | 51.14850 | 10.63473 | 38378 ft | 473 kts | 302° |
| 2026-04-29 10:30 | 51.16502 | 10.58926 | 38112 ft | 474 kts | 303° |
| 2026-04-29 10:30 | 51.18152 | 10.54377 | 37836 ft | 475 kts | 303° |
| 2026-04-29 10:31 | 51.19806 | 10.49809 | 37536 ft | 476 kts | 303° |
| 2026-04-29 10:31 | 51.21462 | 10.45228 | 37302 ft | 477 kts | 303° |
| 2026-04-29 10:31 | 51.23105 | 10.40675 | 37039 ft | 478 kts | 303° |
| 2026-04-29 10:31 | 51.24764 | 10.36072 | 36772 ft | 479 kts | 303° |
| 2026-04-29 10:32 | 51.26395 | 10.31430 | 36519 ft | 481 kts | 301° |
| 2026-04-29 10:32 | 51.27890 | 10.26611 | 36271 ft | 484 kts | 299° |
| 2026-04-29 10:32 | 51.29296 | 10.21702 | 36011 ft | 485 kts | 298° |
| 2026-04-29 10:32 | 51.30675 | 10.16775 | 35756 ft | 486 kts | 298° |
| 2026-04-29 10:33 | 51.32063 | 10.11837 | 35540 ft | 487 kts | 299° |
| 2026-04-29 10:33 | 51.33469 | 10.06901 | 35266 ft | 488 kts | 300° |
| 2026-04-29 10:33 | 51.34880 | 10.02010 | 35017 ft | 490 kts | 300° |
| 2026-04-29 10:33 | 51.36324 | 9.97050 | 34783 ft | 492 kts | 300° |
| 2026-04-29 10:34 | 51.37775 | 9.92080 | 34548 ft | 494 kts | 301° |
| 2026-04-29 10:34 | 51.39231 | 9.87093 | 34308 ft | 495 kts | 301° |
| 2026-04-29 10:34 | 51.40693 | 9.82085 | 34028 ft | 496 kts | 301° |
| 2026-04-29 10:34 | 51.42156 | 9.77060 | 33754 ft | 498 kts | 301° |
| 2026-04-29 10:35 | 51.43598 | 9.72088 | 33486 ft | 499 kts | 301° |
| 2026-04-29 10:35 | 51.45060 | 9.67030 | 33210 ft | 500 kts | 301° |
| 2026-04-29 10:35 | 51.46523 | 9.61960 | 32969 ft | 501 kts | 301° |
| 2026-04-29 10:35 | 51.47991 | 9.56863 | 32828 ft | 504 kts | 301° |
| 2026-04-29 10:36 | 51.49459 | 9.51750 | 32697 ft | 506 kts | 301° |
| 2026-04-29 10:36 | 51.50937 | 9.46597 | 32562 ft | 507 kts | 301° |
| 2026-04-29 10:36 | 51.52414 | 9.41428 | 32426 ft | 507 kts | 301° |
| 2026-04-29 10:36 | 51.53875 | 9.36301 | 32297 ft | 507 kts | 301° |
| 2026-04-29 10:37 | 51.55326 | 9.31200 | 32166 ft | 507 kts | 301° |
| 2026-04-29 10:37 | 51.56790 | 9.26044 | 32038 ft | 508 kts | 301° |
| 2026-04-29 10:37 | 51.58256 | 9.20869 | 31904 ft | 508 kts | 301° |
| 2026-04-29 10:37 | 51.59720 | 9.15694 | 31784 ft | 509 kts | 301° |
| 2026-04-29 10:38 | 51.61184 | 9.10508 | 31660 ft | 509 kts | 301° |
| 2026-04-29 10:38 | 51.62648 | 9.05308 | 31530 ft | 510 kts | 300° |
| 2026-04-29 10:38 | 51.64105 | 9.00123 | 31405 ft | 510 kts | 300° |
| 2026-04-29 10:38 | 51.65566 | 8.94912 | 31273 ft | 510 kts | 300° |
| 2026-04-29 10:39 | 51.67025 | 8.89697 | 31165 ft | 511 kts | 300° |
| 2026-04-29 10:39 | 51.68485 | 8.84465 | 31036 ft | 511 kts | 300° |
| 2026-04-29 10:39 | 51.69940 | 8.79239 | 30909 ft | 511 kts | 300° |
| 2026-04-29 10:39 | 51.71395 | 8.74002 | 30775 ft | 512 kts | 300° |
| 2026-04-29 10:40 | 51.72851 | 8.68755 | 30619 ft | 513 kts | 300° |
| 2026-04-29 10:40 | 51.74301 | 8.63510 | 30509 ft | 512 kts | 300° |
| 2026-04-29 10:40 | 51.75750 | 8.58259 | 30371 ft | 512 kts | 300° |
| 2026-04-29 10:40 | 51.77177 | 8.53074 | 30227 ft | 511 kts | 300° |
| 2026-04-29 10:41 | 51.78616 | 8.47832 | 30081 ft | 509 kts | 300° |
| 2026-04-29 10:41 | 51.80048 | 8.42604 | 29942 ft | 508 kts | 299° |
| 2026-04-29 10:41 | 51.81474 | 8.37389 | 29800 ft | 507 kts | 299° |
| 2026-04-29 10:41 | 51.82897 | 8.32173 | 29660 ft | 506 kts | 299° |
| 2026-04-29 10:42 | 51.84318 | 8.26956 | 29492 ft | 505 kts | 299° |
| 2026-04-29 10:42 | 51.85728 | 8.21767 | 29341 ft | 504 kts | 299° |
| 2026-04-29 10:42 | 51.87136 | 8.16572 | 29221 ft | 503 kts | 299° |
| 2026-04-29 10:42 | 51.88537 | 8.11391 | 29062 ft | 502 kts | 298° |
| 2026-04-29 10:43 | 51.89932 | 8.06221 | 28934 ft | 501 kts | 298° |
| 2026-04-29 10:43 | 51.91326 | 8.01043 | 28793 ft | 500 kts | 298° |
| 2026-04-29 10:43 | 51.92712 | 7.95882 | 28656 ft | 499 kts | 298° |
| 2026-04-29 10:43 | 51.94072 | 7.90806 | 28539 ft | 498 kts | 298° |
| 2026-04-29 10:44 | 51.95467 | 7.85588 | 28395 ft | 496 kts | 298° |
| 2026-04-29 10:44 | 51.96819 | 7.80522 | 28235 ft | 496 kts | 298° |
| 2026-04-29 10:44 | 51.98189 | 7.75379 | 28116 ft | 495 kts | 298° |
| 2026-04-29 10:44 | 51.99552 | 7.70247 | 27969 ft | 494 kts | 298° |
| 2026-04-29 10:45 | 52.00908 | 7.65128 | 27840 ft | 493 kts | 298° |
| 2026-04-29 10:45 | 52.02257 | 7.60026 | 27705 ft | 492 kts | 298° |
| 2026-04-29 10:45 | 52.03605 | 7.54916 | 27589 ft | 491 kts | 297° |
| 2026-04-29 10:45 | 52.04949 | 7.49813 | 27435 ft | 490 kts | 297° |
| 2026-04-29 10:46 | 52.06280 | 7.44744 | 27304 ft | 488 kts | 297° |
| 2026-04-29 10:46 | 52.07609 | 7.39671 | 27171 ft | 487 kts | 297° |
| 2026-04-29 10:46 | 52.08935 | 7.34601 | 27028 ft | 486 kts | 297° |
| 2026-04-29 10:46 | 52.10251 | 7.29533 | 26898 ft | 486 kts | 296° |
| 2026-04-29 10:47 | 52.11496 | 7.24498 | 26763 ft | 486 kts | 296° |
| 2026-04-29 10:47 | 52.12740 | 7.19380 | 26644 ft | 485 kts | 296° |
| 2026-04-29 10:47 | 52.13977 | 7.14294 | 26492 ft | 483 kts | 296° |
| 2026-04-29 10:47 | 52.15201 | 7.09259 | 26226 ft | 471 kts | 296° |
| 2026-04-29 10:48 | 52.16388 | 7.04367 | 25954 ft | 459 kts | 296° |
| 2026-04-29 10:48 | 52.17548 | 6.99588 | 25692 ft | 449 kts | 296° |
| 2026-04-29 10:48 | 52.18694 | 6.94873 | 25421 ft | 446 kts | 296° |
| 2026-04-29 10:48 | 52.19834 | 6.90176 | 25132 ft | 445 kts | 295° |
| 2026-04-29 10:49 | 52.20971 | 6.85479 | 24862 ft | 444 kts | 295° |
| 2026-04-29 10:49 | 52.22103 | 6.80792 | 24539 ft | 442 kts | 295° |
| 2026-04-29 10:49 | 52.23223 | 6.76139 | 24215 ft | 439 kts | 295° |
| 2026-04-29 10:49 | 52.24338 | 6.71501 | 23879 ft | 437 kts | 295° |
| 2026-04-29 10:50 | 52.25442 | 6.66897 | 23488 ft | 434 kts | 295° |
| 2026-04-29 10:50 | 52.26528 | 6.62358 | 23007 ft | 431 kts | 295° |
| 2026-04-29 10:50 | 52.27606 | 6.57838 | 22425 ft | 426 kts | 295° |
| 2026-04-29 10:50 | 52.28675 | 6.53352 | 21830 ft | 421 kts | 295° |
| 2026-04-29 10:51 | 52.29730 | 6.48914 | 21194 ft | 418 kts | 295° |
| 2026-04-29 10:51 | 52.30778 | 6.44503 | 20571 ft | 414 kts | 294° |
| 2026-04-29 10:51 | 52.31467 | 6.41595 | 20149 ft | 413 kts | 294° |
| 2026-04-29 10:51 | 52.32497 | 6.37242 | 19542 ft | 410 kts | 294° |
| 2026-04-29 10:52 | 52.33519 | 6.32909 | 18951 ft | 407 kts | 294° |
| 2026-04-29 10:52 | 52.34531 | 6.28611 | 18316 ft | 404 kts | 294° |
| 2026-04-29 10:52 | 52.35538 | 6.24331 | 17655 ft | 401 kts | 294° |
| 2026-04-29 10:52 | 52.36533 | 6.20089 | 17008 ft | 398 kts | 294° |
| 2026-04-29 10:53 | 52.37518 | 6.15883 | 16361 ft | 395 kts | 294° |
| 2026-04-29 10:53 | 52.38495 | 6.11704 | 15735 ft | 392 kts | 294° |
| 2026-04-29 10:53 | 52.39466 | 6.07543 | 15111 ft | 389 kts | 294° |
| 2026-04-29 10:53 | 52.40426 | 6.03418 | 14521 ft | 386 kts | 294° |
| 2026-04-29 10:54 | 52.41359 | 5.99392 | 13889 ft | 369 kts | 294° |
| 2026-04-29 10:54 | 52.42246 | 5.95557 | 13215 ft | 352 kts | 294° |
| 2026-04-29 10:54 | 52.43097 | 5.91877 | 12558 ft | 338 kts | 293° |
| 2026-04-29 10:54 | 52.43906 | 5.88379 | 11917 ft | 327 kts | 293° |
| 2026-04-29 10:55 | 52.44699 | 5.84944 | 11314 ft | 320 kts | 293° |
| 2026-04-29 10:55 | 52.45493 | 5.81501 | 10704 ft | 324 kts | 293° |
| 2026-04-29 10:55 | 52.46294 | 5.78031 | 10087 ft | 327 kts | 293° |
| 2026-04-29 10:55 | 52.47099 | 5.74533 | 9423 ft | 329 kts | 293° |
| 2026-04-29 10:56 | 52.47905 | 5.71007 | 8779 ft | 330 kts | 292° |
| 2026-04-29 10:56 | 52.48716 | 5.67459 | 8152 ft | 331 kts | 293° |
| 2026-04-29 10:56 | 52.49526 | 5.63914 | 7511 ft | 332 kts | 293° |
| 2026-04-29 10:56 | 52.50335 | 5.60371 | 6908 ft | 332 kts | 293° |
| 2026-04-29 10:57 | 52.51138 | 5.56835 | 6250 ft | 328 kts | 288° |
| 2026-04-29 10:57 | 52.51441 | 5.53212 | 5715 ft | 314 kts | 269° |
| 2026-04-29 10:57 | 52.51030 | 5.49797 | 5191 ft | 299 kts | 247° |
| 2026-04-29 10:57 | 52.50144 | 5.46757 | 4707 ft | 293 kts | 237° |
| 2026-04-29 10:58 | 52.49035 | 5.43959 | 4443 ft | 293 kts | 231° |
| 2026-04-29 10:58 | 52.47829 | 5.41300 | 4391 ft | 289 kts | 228° |
| 2026-04-29 10:58 | 52.46602 | 5.38701 | 4396 ft | 289 kts | 228° |
| 2026-04-29 10:58 | 52.45377 | 5.36093 | 4412 ft | 288 kts | 229° |
| 2026-04-29 10:59 | 52.44180 | 5.33499 | 4394 ft | 288 kts | 229° |
| 2026-04-29 10:59 | 52.42987 | 5.30853 | 4396 ft | 289 kts | 230° |
| 2026-04-29 10:59 | 52.41803 | 5.28185 | 4388 ft | 289 kts | 230° |
| 2026-04-29 10:59 | 52.40632 | 5.25516 | 4416 ft | 288 kts | 230° |
| 2026-04-29 11:00 | 52.39465 | 5.22843 | 4386 ft | 288 kts | 230° |
| 2026-04-29 11:00 | 52.38313 | 5.20206 | 4386 ft | 281 kts | 230° |
| 2026-04-29 11:00 | 52.37180 | 5.17613 | 4387 ft | 279 kts | 230° |
| 2026-04-29 11:00 | 52.36054 | 5.15044 | 4379 ft | 278 kts | 230° |
| 2026-04-29 11:01 | 52.34923 | 5.12476 | 4371 ft | 278 kts | 230° |
| 2026-04-29 11:01 | 52.33824 | 5.09876 | 4369 ft | 279 kts | 234° |
| 2026-04-29 11:01 | 52.32861 | 5.07148 | 4361 ft | 269 kts | 237° |
| 2026-04-29 11:01 | 52.31977 | 5.04508 | 4366 ft | 260 kts | 237° |
| 2026-04-29 11:02 | 52.31110 | 5.01905 | 4372 ft | 260 kts | 237° |
| 2026-04-29 11:02 | 52.30247 | 4.99314 | 4368 ft | 260 kts | 237° |
| 2026-04-29 11:02 | 52.29392 | 4.96761 | 4372 ft | 259 kts | 237° |
| 2026-04-29 11:02 | 52.28526 | 4.94170 | 4384 ft | 259 kts | 237° |
| 2026-04-29 11:03 | 52.27664 | 4.91590 | 4371 ft | 259 kts | 237° |
| 2026-04-29 11:03 | 52.26800 | 4.89009 | 4372 ft | 259 kts | 237° |
| 2026-04-29 11:03 | 52.25931 | 4.86430 | 4371 ft | 259 kts | 237° |
| 2026-04-29 11:03 | 52.25064 | 4.83861 | 4370 ft | 259 kts | 237° |
| 2026-04-29 11:04 | 52.24198 | 4.81272 | 4378 ft | 260 kts | 237° |
| 2026-04-29 11:04 | 52.23331 | 4.78682 | 4376 ft | 260 kts | 237° |
| 2026-04-29 11:04 | 52.22460 | 4.76094 | 4373 ft | 259 kts | 237° |
| 2026-04-29 11:04 | 52.21598 | 4.73520 | 4375 ft | 260 kts | 237° |
| 2026-04-29 11:05 | 52.20727 | 4.70936 | 4372 ft | 260 kts | 237° |
| 2026-04-29 11:05 | 52.19857 | 4.68355 | 4350 ft | 259 kts | 237° |
| 2026-04-29 11:05 | 52.18994 | 4.65785 | 4351 ft | 258 kts | 237° |
| 2026-04-29 11:05 | 52.18136 | 4.63214 | 4347 ft | 259 kts | 237° |
| 2026-04-29 11:06 | 52.17271 | 4.60628 | 4181 ft | 260 kts | 237° |
| 2026-04-29 11:06 | 52.16405 | 4.58037 | 3749 ft | 262 kts | 237° |
| 2026-04-29 11:06 | 52.15541 | 4.55454 | 3288 ft | 262 kts | 237° |
| 2026-04-29 11:06 | 52.14674 | 4.52932 | 2990 ft | 245 kts | 238° |
| 2026-04-29 11:07 | 52.13868 | 4.50654 | 2964 ft | 219 kts | 236° |
| 2026-04-29 11:07 | 52.13266 | 4.48452 | 2968 ft | 213 kts | 258° |
| 2026-04-29 11:07 | 52.13403 | 4.46105 | 2968 ft | 209 kts | 295° |
| 2026-04-29 11:07 | 52.14287 | 4.44337 | 2964 ft | 197 kts | 333° |
| 2026-04-29 11:08 | 52.15534 | 4.43666 | 2963 ft | 186 kts | 359° |
| 2026-04-29 11:08 | 52.16796 | 4.43669 | 2967 ft | 177 kts | 18° |
| 2026-04-29 11:08 | 52.17761 | 4.44684 | 2959 ft | 164 kts | 62° |
| 2026-04-29 11:08 | 52.18289 | 4.46315 | 2963 ft | 162 kts | 65° |
| 2026-04-29 11:09 | 52.18834 | 4.47901 | 2966 ft | 163 kts | 63° |
| 2026-04-29 11:09 | 52.19430 | 4.49472 | 2964 ft | 163 kts | 61° |
| 2026-04-29 11:09 | 52.20038 | 4.51014 | 2969 ft | 158 kts | 63° |
| 2026-04-29 11:09 | 52.20614 | 4.52473 | 2970 ft | 149 kts | 63° |
| 2026-04-29 11:10 | 52.21165 | 4.53887 | 2888 ft | 146 kts | 64° |
| 2026-04-29 11:10 | 52.21704 | 4.55293 | 2688 ft | 147 kts | 63° |
| 2026-04-29 11:10 | 52.22250 | 4.56696 | 2473 ft | 144 kts | 62° |
| 2026-04-29 11:10 | 52.22772 | 4.58026 | 2279 ft | 135 kts | 60° |
| 2026-04-29 11:11 | 52.23272 | 4.59303 | 2101 ft | 135 kts | 61° |
| 2026-04-29 11:11 | 52.23778 | 4.60604 | 1910 ft | 136 kts | 60° |
| 2026-04-29 11:11 | 52.24285 | 4.61903 | 1729 ft | 135 kts | 60° |
| 2026-04-29 11:11 | 52.24789 | 4.63198 | 1537 ft | 135 kts | 60° |
| 2026-04-29 11:12 | 52.25289 | 4.64483 | 1343 ft | 133 kts | 60° |
| 2026-04-29 11:12 | 52.25789 | 4.65765 | 1167 ft | 135 kts | 59° |
| 2026-04-29 11:12 | 52.26275 | 4.67009 | 999 ft | 130 kts | 60° |
| 2026-04-29 11:12 | 52.26774 | 4.68235 | 757 ft | 129 kts | 59° |
| 2026-04-29 11:13 | 52.27273 | 4.69463 | 611 ft | 132 kts | 59° |
| 2026-04-29 11:13 | 52.27771 | 4.70736 | 417 ft | 133 kts | 61° |
| 2026-04-29 11:13 | 52.28247 | 4.72019 | 243 ft | 131 kts | 59° |
| 2026-04-29 11:13 | 52.28737 | 4.73268 | 86 ft | 129 kts | 59° |
| 2026-04-29 11:14 | 52.29196 | 4.74439 | 9 ft | 112 kts | 64° |
| 2026-04-29 11:14 | 52.29522 | 4.75316 | 3 ft | 57 kts | 58° |
| 2026-04-29 11:14 | 52.29688 | 4.75748 | 2 ft | 42 kts | 58° |
| 2026-04-29 11:14 | 52.29792 | 4.76017 | -1 ft | 24 kts | 58° |
| 2026-04-29 11:15 | 52.29882 | 4.76249 | 0 ft | 24 kts | 58° |
| 2026-04-29 11:15 | 52.29981 | 4.76472 | 2 ft | 23 kts | 41° |
| 2026-04-29 11:15 | 52.30115 | 4.76612 | 3 ft | 23 kts | 28° |
| 2026-04-29 11:15 | 52.30145 | 4.76639 | 4 ft | 4 kts | 28° |
| 2026-04-29 11:16 | 52.30194 | 4.76681 | 3 ft | 10 kts | 28° |
| 2026-04-29 11:16 | 52.30264 | 4.76748 | 3 ft | 13 kts | 34° |
| 2026-04-29 11:16 | 52.30326 | 4.76863 | 3 ft | 14 kts | 56° |
| 2026-04-29 11:16 | 52.30385 | 4.77008 | 3 ft | 17 kts | 56° |
| 2026-04-29 11:17 | 52.30451 | 4.77179 | 3 ft | 19 kts | 58° |
| 2026-04-29 11:17 | 52.30521 | 4.77365 | 3 ft | 20 kts | 58° |
| 2026-04-29 11:17 | 52.30610 | 4.77553 | 3 ft | 22 kts | 31° |
| 2026-04-29 11:17 | 52.30762 | 4.77598 | 3 ft | 23 kts | 4° |
| 2026-04-29 11:18 | 52.30933 | 4.77613 | 3 ft | 26 kts | 3° |
| 2026-04-29 11:18 | 52.31119 | 4.77632 | 3 ft | 28 kts | 4° |
| 2026-04-29 11:18 | 52.31319 | 4.77651 | 4 ft | 30 kts | 2° |
| 2026-04-29 11:18 | 52.31485 | 4.77594 | 3 ft | 24 kts | 322° |
| 2026-04-29 11:19 | 52.31578 | 4.77357 | 3 ft | 26 kts | 273° |
| 2026-04-29 11:19 | 52.31569 | 4.77044 | 3 ft | 29 kts | 266° |
| 2026-04-29 11:19 | 52.31558 | 4.76773 | 3 ft | 19 kts | 266° |
| 2026-04-29 11:19 | 52.31551 | 4.76530 | 4 ft | 23 kts | 266° |
| 2026-04-29 11:20 | 52.31542 | 4.76252 | 4 ft | 26 kts | 267° |
| 2026-04-29 11:20 | 52.31535 | 4.76071 | 4 ft | 7 kts | 266° |
| 2026-04-29 11:20 | 52.31524 | 4.75969 | 4 ft | 11 kts | 241° |
| 2026-04-29 11:20 | 52.31512 | 4.75948 | 4 ft | 0 kts | 224° |
| 2026-04-29 11:24 | 52.31511 | 4.75946 | 4 ft | 1 kts | 224° |
| 2026-04-29 11:24 | 52.31461 | 4.75927 | 4 ft | 11 kts | 184° |
| 2026-04-29 11:24 | 52.31369 | 4.75927 | 3 ft | 15 kts | 176° |
| 2026-04-29 11:25 | 52.31307 | 4.75934 | 3 ft | 6 kts | 176° |
| 2026-04-29 11:25 | 52.31260 | 4.75922 | 3 ft | 8 kts | 219° |
| 2026-04-29 11:25 | 52.31238 | 4.75842 | 3 ft | 9 kts | 261° |
| 2026-04-29 11:25 | 52.31237 | 4.75831 | 3 ft | 0 kts | 261° |